Time;durP1;ratioP1;P1;durP2;ratioP2;P2;SDS_P1;SDS_P2;PMS_P1;PMS_P2;Temp;Humidity;BMP_temperature;BMP_pressure;BME280_temperature;BME280_humidity;BME280_pressure;Samples;Min_cycle;Max_cycle;Signal;HPM_P1;HPM_P2
2022/07/02 00:01:55;;;;;;;10.50;9.40;;;;;;;19.21;100.00;98901.86;2050185;84;21057;-91
2022/07/02 00:04:56;;;;;;;10.80;9.90;;;;;;;19.23;100.00;98901.63;2046985;85;21022;-91
2022/07/02 00:07:56;;;;;;;11.12;10.03;;;;;;;19.23;100.00;98910.91;2059301;84;21072;-91
2022/07/02 00:10:57;;;;;;;10.05;9.13;;;;;;;19.27;100.00;98931.45;2057433;84;21581;-91
2022/07/02 00:13:58;;;;;;;8.75;8.08;;;;;;;19.35;100.00;98957.37;2051375;85;21055;-91
2022/07/02 00:16:59;;;;;;;9.50;8.60;;;;;;;19.43;100.00;98979.08;2054033;84;21068;-91
2022/07/02 00:19:59;;;;;;;10.25;9.35;;;;;;;19.48;100.00;98984.52;2025437;86;21084;-90
2022/07/02 00:23:00;;;;;;;9.48;8.53;;;;;;;19.51;100.00;99008.47;2015965;86;21032;-90
2022/07/02 00:26:00;;;;;;;7.97;7.28;;;;;;;19.55;100.00;99025.55;2067081;83;21056;-90
2022/07/02 00:29:01;;;;;;;8.83;8.13;;;;;;;19.58;100.00;99043.20;2053211;85;21027;-92
2022/07/02 00:32:01;;;;;;;9.05;8.05;;;;;;;19.63;100.00;99050.47;2066910;85;21081;-89
2022/07/02 00:35:02;;;;;;;9.13;8.33;;;;;;;19.68;100.00;99057.77;2063698;84;21030;-90
2022/07/02 00:38:03;;;;;;;7.85;7.15;;;;;;;19.68;100.00;99042.63;2029033;86;21026;-90
2022/07/02 00:41:03;;;;;;;7.80;7.20;;;;;;;19.72;100.00;99042.45;1998134;86;21062;-90
2022/07/02 00:44:04;;;;;;;8.30;7.55;;;;;;;19.71;100.00;99055.97;2019036;86;21578;-91
2022/07/02 00:47:05;;;;;;;7.15;6.45;;;;;;;19.70;100.00;99065.78;2025284;86;21561;-90
2022/07/02 00:50:05;;;;;;;7.30;6.70;;;;;;;19.66;100.00;99062.47;2013054;86;21098;-89
2022/07/02 00:53:06;;;;;;;8.08;7.37;;;;;;;19.60;100.00;99057.58;2013758;87;21033;-91
2022/07/02 00:56:06;;;;;;;8.33;7.72;;;;;;;19.60;100.00;99055.73;2028017;86;21058;-91
2022/07/02 00:59:07;;;;;;;8.83;7.25;;;;;;;19.61;100.00;99056.53;2042533;85;21132;-91
2022/07/02 01:02:07;;;;;;;8.35;7.62;;;;;;;19.62;100.00;99052.84;2030143;85;21494;-91
2022/07/02 01:05:08;;;;;;;8.30;7.40;;;;;;;19.64;100.00;99045.97;2017120;87;21061;-92
2022/07/02 01:11:28;;;;;;;8.80;8.15;;;;;;;19.59;100.00;99034.72;2041516;85;21046;-92
2022/07/02 01:14:28;;;;;;;8.45;7.75;;;;;;;19.57;100.00;99023.00;2049365;85;21073;-92
2022/07/02 01:17:29;;;;;;;7.75;7.15;;;;;;;19.60;100.00;99024.38;2046933;86;21568;-91
2022/07/02 01:20:30;;;;;;;8.53;7.72;;;;;;;19.61;100.00;99028.65;2044203;85;21105;-91
2022/07/02 01:23:30;;;;;;;8.85;8.18;;;;;;;19.56;100.00;99016.05;2055386;84;21064;-91
2022/07/02 01:26:31;;;;;;;8.55;7.87;;;;;;;19.53;100.00;99028.44;2052718;84;21557;-92
2022/07/02 01:29:32;;;;;;;9.20;8.30;;;;;;;19.51;100.00;99025.20;2055141;84;21013;-92
2022/07/02 01:32:33;;;;;;;9.95;9.10;;;;;;;19.49;100.00;99016.67;2038111;86;21643;-91
2022/07/02 01:35:34;;;;;;;9.80;8.88;;;;;;;19.48;100.00;99008.94;2060518;84;21146;-92
2022/07/02 01:38:35;;;;;;;7.67;7.08;;;;;;;19.52;100.00;99015.39;2050417;85;21027;-91
2022/07/02 01:41:38;;;;;;;7.90;7.30;;;;;;;19.52;100.00;99018.85;2048846;85;21085;-92
2022/07/02 01:44:38;;;;;;;9.03;7.83;;;;;;;19.53;100.00;99017.81;2046420;85;21152;-92
2022/07/02 01:47:38;;;;;;;7.83;6.95;;;;;;;19.55;100.00;99012.27;2032640;85;21081;-93
2022/07/02 01:50:39;;;;;;;8.58;7.80;;;;;;;19.58;100.00;99027.79;2019916;86;21072;-92
2022/07/02 01:53:40;;;;;;;10.13;9.33;;;;;;;19.59;100.00;99029.41;2021566;86;21075;-92
2022/07/02 01:56:40;;;;;;;12.07;9.53;;;;;;;19.57;100.00;99043.44;2024737;86;21061;-92
2022/07/02 01:59:41;;;;;;;8.85;8.05;;;;;;;19.47;100.00;99045.80;2053313;84;21612;-93
2022/07/02 02:02:42;;;;;;;9.45;8.45;;;;;;;19.41;100.00;99040.90;2027382;85;21520;-93
2022/07/02 02:05:42;;;;;;;10.32;9.43;;;;;;;19.39;100.00;99042.98;2051023;85;21056;-94
2022/07/02 02:08:43;;;;;;;11.83;10.82;;;;;;;19.38;100.00;99034.70;2037612;84;21044;-92
2022/07/02 02:11:43;;;;;;;11.45;10.35;;;;;;;19.41;100.00;99044.08;2003071;87;21514;-93
2022/07/02 02:14:44;;;;;;;12.25;11.05;;;;;;;19.41;100.00;99050.19;1995810;87;21083;-93
2022/07/02 02:17:45;;;;;;;11.90;10.68;;;;;;;19.37;100.00;99052.19;1997698;88;21084;-93
2022/07/02 02:20:45;;;;;;;11.18;9.00;;;;;;;19.33;100.00;99050.00;2008765;87;21609;-93
2022/07/02 02:23:46;;;;;;;11.97;10.40;;;;;;;19.40;100.00;99043.27;2017621;86;21004;-93
2022/07/02 02:26:46;;;;;;;14.25;12.80;;;;;;;19.42;100.00;99049.15;2020793;86;21086;-94
2022/07/02 02:29:47;;;;;;;12.43;11.05;;;;;;;19.38;100.00;99055.94;2061412;85;21068;-93
2022/07/02 02:32:47;;;;;;;10.53;9.73;;;;;;;19.34;100.00;99054.79;2046355;85;21002;-94
2022/07/02 02:35:48;;;;;;;11.55;10.25;;;;;;;19.31;100.00;99057.91;2003162;87;21030;-92
2022/07/02 02:38:49;;;;;;;12.35;10.80;;;;;;;19.26;100.00;99071.04;2007214;87;21619;-92
2022/07/02 02:41:49;;;;;;;11.40;10.23;;;;;;;19.24;100.00;99069.95;2006364;87;21077;-93
2022/07/02 02:44:50;;;;;;;12.00;10.90;;;;;;;19.25;100.00;99071.56;2016956;87;21552;-92
2022/07/02 02:47:51;;;;;;;12.63;10.58;;;;;;;19.16;100.00;99077.42;2053137;84;21081;-94
2022/07/02 02:50:51;;;;;;;9.65;8.80;;;;;;;19.08;100.00;99089.16;2046377;86;21080;-93
2022/07/02 02:53:53;;;;;;;14.40;11.33;;;;;;;19.02;100.00;99101.50;2044982;84;21122;-93
2022/07/02 02:56:54;;;;;;;10.60;9.60;;;;;;;18.97;100.00;99096.05;2055584;83;21149;-93
2022/07/02 02:59:54;;;;;;;11.35;10.25;;;;;;;18.91;100.00;99091.63;2070225;83;21572;-93
2022/07/02 03:02:56;;;;;;;8.90;8.10;;;;;;;18.90;100.00;99097.16;2054384;84;21528;-93
2022/07/02 03:05:57;;;;;;;10.70;9.65;;;;;;;18.90;100.00;99110.42;2069394;83;21101;-93
2022/07/02 03:08:57;;;;;;;10.00;9.08;;;;;;;18.86;100.00;99107.94;2063313;84;21021;-93
2022/07/02 03:11:58;;;;;;;14.83;11.75;;;;;;;18.88;100.00;99099.23;2061380;84;21015;-93
2022/07/02 03:14:59;;;;;;;10.53;9.53;;;;;;;18.87;100.00;99102.92;2048162;84;21021;-92
2022/07/02 03:18:00;;;;;;;15.80;11.12;;;;;;;18.91;100.00;99106.73;2058796;85;21033;-93
2022/07/02 03:21:00;;;;;;;11.80;10.60;;;;;;;18.88;100.00;99108.52;2061298;84;21501;-93
2022/07/02 03:24:01;;;;;;;11.75;10.58;;;;;;;18.83;100.00;99108.36;2070333;83;21011;-93
2022/07/02 03:27:02;;;;;;;10.75;9.85;;;;;;;18.84;100.00;99117.97;2064802;84;21073;-93
2022/07/02 03:30:02;;;;;;;15.10;10.63;;;;;;;18.84;100.00;99112.14;2074400;84;21022;-94
2022/07/02 03:33:03;;;;;;;10.68;9.68;;;;;;;18.82;100.00;99134.59;2082621;83;21612;-92
2022/07/02 03:36:03;;;;;;;11.93;10.80;;;;;;;18.84;100.00;99129.91;2068472;84;21473;-93
2022/07/02 03:39:04;;;;;;;9.88;8.93;;;;;;;18.86;100.00;99125.98;2059636;84;21069;-92
2022/07/02 03:42:04;;;;;;;10.68;9.68;;;;;;;18.81;100.00;99138.29;2030109;85;21017;-93
2022/07/02 03:45:05;;;;;;;11.38;10.20;;;;;;;18.68;100.00;99134.77;2049509;85;20999;-91
2022/07/02 03:48:05;;;;;;;11.40;10.30;;;;;;;18.60;100.00;99144.83;2051743;85;21089;-92
2022/07/02 03:51:06;;;;;;;11.85;10.72;;;;;;;18.58;100.00;99151.68;2048897;85;21010;-91
2022/07/02 03:54:06;;;;;;;9.10;8.30;;;;;;;18.53;100.00;99149.38;2056955;85;21065;-93
2022/07/02 03:57:07;;;;;;;12.15;10.98;;;;;;;18.52;100.00;99151.74;2047461;85;21067;-93
2022/07/02 04:00:07;;;;;;;11.45;10.35;;;;;;;18.46;100.00;99154.75;2040748;84;21043;-93
2022/07/02 04:03:08;;;;;;;10.85;9.75;;;;;;;18.47;100.00;99157.20;2061262;83;21017;-93
2022/07/02 04:06:09;;;;;;;9.28;8.38;;;;;;;18.45;100.00;99161.89;2048834;85;21112;-93
2022/07/02 04:09:09;;;;;;;10.53;9.73;;;;;;;18.38;100.00;99169.13;2051768;84;21002;-91
2022/07/02 04:12:10;;;;;;;9.63;8.83;;;;;;;18.37;100.00;99182.57;2055581;84;21104;-92
2022/07/02 04:15:10;;;;;;;9.68;8.88;;;;;;;18.35;100.00;99179.33;2026602;85;21635;-93
2022/07/02 04:18:11;;;;;;;8.43;7.75;;;;;;;18.33;100.00;99186.19;2065790;84;21109;-94
2022/07/02 04:21:11;;;;;;;7.60;6.85;;;;;;;18.29;100.00;99180.23;2019759;85;21042;-92
2022/07/02 04:24:12;;;;;;;8.33;7.42;;;;;;;18.28;100.00;99191.31;2044504;83;21004;-94
2022/07/02 04:27:13;;;;;;;8.18;7.50;;;;;;;18.25;100.00;99198.38;2060198;85;21061;-95
2022/07/02 04:30:13;;;;;;;7.20;6.55;;;;;;;18.23;100.00;99202.29;2069652;84;21085;-95
2022/07/02 04:33:14;;;;;;;7.47;6.97;;;;;;;18.22;100.00;99202.00;2055749;85;21494;-93
2022/07/02 04:36:14;;;;;;;6.20;5.70;;;;;;;18.20;100.00;99204.87;2030368;85;21070;-93
2022/07/02 04:39:15;;;;;;;7.20;6.60;;;;;;;18.27;100.00;99200.81;2048263;85;21090;-94
2022/07/02 04:42:15;;;;;;;7.17;6.58;;;;;;;18.37;100.00;99207.23;2048275;85;21045;-93
2022/07/02 04:45:16;;;;;;;8.35;7.47;;;;;;;18.38;100.00;99208.89;2065103;84;21552;-92
2022/07/02 04:48:17;;;;;;;7.53;6.10;;;;;;;18.41;100.00;99216.39;2065589;84;21068;-93
2022/07/02 04:51:17;;;;;;;6.53;6.00;;;;;;;18.45;100.00;99216.24;2066107;84;21045;-94
2022/07/02 04:54:18;;;;;;;7.03;6.42;;;;;;;18.44;100.00;99225.75;2050514;83;21012;-93
2022/07/02 04:57:19;;;;;;;6.22;5.35;;;;;;;18.43;100.00;99230.23;2071752;84;21073;-93
2022/07/02 05:00:19;;;;;;;7.37;6.78;;;;;;;18.47;100.00;99238.59;2060804;84;21059;-94
2022/07/02 05:03:20;;;;;;;7.30;6.70;;;;;;;18.49;100.00;99235.20;2066363;84;21088;-93
2022/07/02 05:06:21;;;;;;;7.60;7.03;;;;;;;18.50;100.00;99246.61;2051355;85;21104;-93
2022/07/02 05:09:23;;;;;;;6.97;6.37;;;;;;;18.46;100.00;99245.70;2052050;84;21512;-93
2022/07/02 05:12:24;;;;;;;7.87;7.08;;;;;;;18.52;100.00;99250.66;2041967;86;21609;-92
2022/07/02 05:15:25;;;;;;;8.83;8.13;;;;;;;18.52;100.00;99256.48;2042027;84;21090;-93
2022/07/02 05:18:25;;;;;;;7.30;6.60;;;;;;;18.46;100.00;99259.47;2064055;84;21026;-92
2022/07/02 05:21:26;;;;;;;8.23;7.42;;;;;;;18.41;100.00;99260.14;2068902;84;21124;-93
2022/07/02 05:24:26;;;;;;;8.63;7.83;;;;;;;18.44;100.00;99271.63;2073125;84;21631;-92
2022/07/02 05:27:27;;;;;;;7.83;6.78;;;;;;;18.45;100.00;99268.45;2071277;83;21076;-93
2022/07/02 05:30:27;;;;;;;7.03;6.42;;;;;;;18.42;100.00;99282.16;2069601;84;21132;-92
2022/07/02 05:33:28;;;;;;;7.72;7.12;;;;;;;18.30;100.00;99290.00;2067391;84;21052;-93
2022/07/02 05:36:29;;;;;;;7.50;6.75;;;;;;;18.27;100.00;99288.28;2062570;84;21544;-93
2022/07/02 05:39:29;;;;;;;8.40;7.60;;;;;;;18.24;100.00;99292.70;2039354;85;21110;-91
2022/07/02 05:42:30;;;;;;;7.35;6.67;;;;;;;18.25;100.00;99299.62;2045864;84;21071;-92
2022/07/02 05:45:30;;;;;;;7.72;7.12;;;;;;;18.24;100.00;99301.97;2044409;86;21622;-91
2022/07/02 05:48:31;;;;;;;6.58;6.08;;;;;;;18.27;100.00;99301.02;2056375;85;21053;-92
2022/07/02 05:51:31;;;;;;;6.22;5.83;;;;;;;18.31;100.00;99300.09;2055594;86;21090;-91
2022/07/02 05:54:32;;;;;;;5.80;5.33;;;;;;;18.38;100.00;99314.12;2050302;85;21034;-90
2022/07/02 05:57:33;;;;;;;5.20;4.83;;;;;;;18.37;100.00;99315.12;2067603;84;21160;-91
2022/07/02 06:00:33;;;;;;;7.47;5.25;;;;;;;18.38;100.00;99327.38;2069581;83;21044;-90
2022/07/02 06:03:34;;;;;;;4.92;4.33;;;;;;;18.43;100.00;99324.35;2070573;84;20991;-87
2022/07/02 06:09:54;;;;;;;4.00;3.80;;;;;;;18.61;100.00;99336.87;2035211;85;21011;-87
2022/07/02 06:12:54;;;;;;;4.50;3.72;;;;;;;18.68;100.00;99343.48;2053484;85;21420;-87
2022/07/02 06:15:55;;;;;;;4.42;4.10;;;;;;;18.65;100.00;99335.94;2029064;85;21628;-84
2022/07/02 06:18:55;;;;;;;3.75;3.52;;;;;;;18.72;100.00;99337.52;2045386;84;21146;-88
2022/07/02 06:21:56;;;;;;;3.87;3.60;;;;;;;18.76;100.00;99343.22;2067622;83;21018;-93
2022/07/02 06:24:57;;;;;;;3.50;3.30;;;;;;;18.75;100.00;99346.90;2057056;84;21106;-88
2022/07/02 06:27:57;;;;;;;7.87;7.15;;;;;;;18.85;100.00;99349.88;2065687;84;20991;-87
2022/07/02 06:30:58;;;;;;;23.98;21.62;;;;;;;18.95;100.00;99365.30;2061725;84;21584;-87
2022/07/02 06:33:59;;;;;;;5.45;5.05;;;;;;;19.00;100.00;99357.47;2043032;85;21072;-89
2022/07/02 06:36:59;;;;;;;3.52;3.33;;;;;;;18.97;100.00;99364.55;2054559;84;21063;-88
2022/07/02 06:40:00;;;;;;;3.42;3.22;;;;;;;19.07;100.00;99364.05;2051937;84;22208;-90
2022/07/02 06:43:01;;;;;;;2.98;2.77;;;;;;;19.21;100.00;99366.89;2054254;85;21157;-90
2022/07/02 06:46:02;;;;;;;5.87;5.28;;;;;;;19.25;100.00;99370.72;2055063;84;21064;-89
2022/07/02 06:49:02;;;;;;;4.20;3.37;;;;;;;19.19;100.00;99367.61;2052756;84;21021;-86
2022/07/02 06:52:03;;;;;;;4.10;2.47;;;;;;;19.13;100.00;99376.46;2067716;85;21014;-90
2022/07/02 06:55:03;;;;;;;4.55;3.20;;;;;;;19.06;100.00;99388.45;2048624;84;21129;-93
2022/07/02 06:58:04;;;;;;;3.98;3.67;;;;;;;19.07;100.00;99393.25;2068891;84;21417;-92
2022/07/02 07:01:05;;;;;;;3.22;2.90;;;;;;;19.03;100.00;99399.00;2047573;85;21046;-90
2022/07/02 07:04:05;;;;;;;3.17;2.87;;;;;;;18.99;100.00;99407.08;2055835;84;21060;-92
2022/07/02 07:07:09;;;;;;;2.80;2.65;;;;;;;18.99;100.00;99405.75;2058302;85;21018;-94
2022/07/02 07:10:08;;;;;;;3.40;3.08;;;;;;;18.94;100.00;99405.61;2015372;87;21602;-90
2022/07/02 07:13:09;;;;;;;3.22;2.95;;;;;;;18.88;100.00;99416.27;2022432;86;21089;-92
2022/07/02 07:16:09;;;;;;;3.00;2.80;;;;;;;18.86;100.00;99424.97;1993957;87;21082;-93
2022/07/02 07:19:10;;;;;;;3.08;2.87;;;;;;;18.96;100.00;99422.64;1983295;88;21142;-93
2022/07/02 07:22:11;;;;;;;3.00;2.80;;;;;;;19.07;100.00;99427.75;2040632;85;21064;-94
2022/07/02 07:25:12;;;;;;;2.30;2.05;;;;;;;19.14;100.00;99431.16;2035954;85;21078;-95
2022/07/02 07:28:12;;;;;;;1.80;1.70;;;;;;;19.25;100.00;99439.74;2016134;87;21042;-94
2022/07/02 07:31:13;;;;;;;2.58;2.47;;;;;;;19.31;100.00;99443.67;2050903;85;21035;-93
2022/07/02 07:34:13;;;;;;;2.80;2.60;;;;;;;19.37;100.00;99446.47;2043500;84;21578;-94
2022/07/02 07:37:14;;;;;;;2.17;2.08;;;;;;;19.47;100.00;99440.95;2037213;86;21091;-94
2022/07/02 07:40:15;;;;;;;2.17;2.08;;;;;;;19.55;100.00;99435.87;2050966;85;21137;-94
2022/07/02 07:43:16;;;;;;;2.15;2.05;;;;;;;19.65;100.00;99445.50;2017271;87;21083;-95
2022/07/02 07:46:16;;;;;;;1.80;1.80;;;;;;;19.62;100.00;99449.94;2025848;87;21114;-94
2022/07/02 07:49:17;;;;;;;2.58;2.47;;;;;;;19.83;100.00;99440.19;2023626;87;21012;-89
2022/07/02 07:52:18;;;;;;;1.92;1.82;;;;;;;20.00;100.00;99446.23;2030704;86;21031;-91
2022/07/02 07:55:18;;;;;;;5.45;2.65;;;;;;;20.01;100.00;99449.19;2042904;85;21057;-93
2022/07/02 07:58:19;;;;;;;4.83;4.47;;;;;;;20.02;100.00;99464.09;2040075;85;21086;-94
2022/07/02 08:01:20;;;;;;;6.92;4.95;;;;;;;19.89;100.00;99459.24;2044840;85;21141;-94
2022/07/02 08:04:21;;;;;;;6.72;4.75;;;;;;;19.78;100.00;99464.48;2069828;85;21069;-88
2022/07/02 08:07:22;;;;;;;5.58;4.25;;;;;;;19.81;100.00;99458.72;2059733;83;21104;-88
2022/07/02 08:10:22;;;;;;;4.15;3.95;;;;;;;20.06;100.00;99458.13;2057704;83;21109;-90
2022/07/02 08:13:23;;;;;;;2.60;2.50;;;;;;;20.15;100.00;99462.63;2068289;85;21818;-88
2022/07/02 08:16:24;;;;;;;2.67;2.45;;;;;;;20.14;100.00;99460.48;2042687;84;21016;-89
2022/07/02 08:19:24;;;;;;;2.75;2.55;;;;;;;20.13;100.00;99463.38;2068555;84;21033;-87
2022/07/02 08:22:25;;;;;;;1.95;1.70;;;;;;;20.17;100.00;99455.23;2046899;85;21614;-87
2022/07/02 08:25:26;;;;;;;1.85;1.75;;;;;;;20.35;100.00;99457.05;2059354;84;21014;-87
2022/07/02 08:28:26;;;;;;;1.55;1.52;;;;;;;20.50;100.00;99466.00;2064833;83;21033;-88
2022/07/02 08:31:27;;;;;;;2.05;1.95;;;;;;;20.51;100.00;99457.79;2064792;83;21105;-88
2022/07/02 08:34:28;;;;;;;2.55;2.45;;;;;;;20.39;100.00;99453.73;2059897;84;21049;-87
2022/07/02 08:37:28;;;;;;;2.40;2.30;;;;;;;20.32;100.00;99449.53;2018279;86;21111;-89
2022/07/02 08:40:29;;;;;;;2.50;2.30;;;;;;;20.45;100.00;99460.02;2025343;86;21134;-89
2022/07/02 08:43:30;;;;;;;3.87;3.27;;;;;;;20.55;100.00;99462.94;2020610;86;21031;-90
2022/07/02 08:46:30;;;;;;;5.42;5.08;;;;;;;20.52;100.00;99455.94;2021486;86;21040;-89
2022/07/02 08:49:31;;;;;;;6.12;5.72;;;;;;;20.58;100.00;99464.36;2053607;85;21109;-90
2022/07/02 08:52:31;;;;;;;6.15;5.75;;;;;;;20.59;100.00;99456.66;2067182;84;21022;-90
2022/07/02 08:55:32;;;;;;;5.92;5.53;;;;;;;20.71;100.00;99460.16;2063616;85;21015;-90
2022/07/02 08:58:33;;;;;;;9.15;8.45;;;;;;;20.89;100.00;99453.44;2052661;85;21066;-89
2022/07/02 09:01:34;;;;;;;11.85;10.78;;;;;;;20.89;100.00;99461.42;2057255;85;21031;-90
2022/07/02 09:04:35;;;;;;;10.95;9.95;;;;;;;20.82;100.00;99466.03;2012195;87;21065;-88
2022/07/02 09:07:36;;;;;;;12.47;11.28;;;;;;;20.78;100.00;99465.39;2016756;87;21059;-89
2022/07/02 09:10:36;;;;;;;14.15;12.78;;;;;;;20.95;100.00;99468.51;2000041;86;21151;-89
2022/07/02 09:13:37;;;;;;;16.05;13.08;;;;;;;21.08;100.00;99459.48;2004130;87;21067;-88
2022/07/02 09:16:37;;;;;;;14.85;13.55;;;;;;;21.32;100.00;99467.55;1997243;87;21012;-89
2022/07/02 09:19:38;;;;;;;16.65;15.13;;;;;;;21.54;100.00;99471.23;2005224;87;21065;-90
2022/07/02 09:22:39;;;;;;;15.72;14.43;;;;;;;21.74;100.00;99474.86;2002577;86;21131;-90
2022/07/02 09:25:40;;;;;;;14.38;13.13;;;;;;;21.72;100.00;99472.44;2003428;86;21032;-89
2022/07/02 09:28:40;;;;;;;12.75;11.75;;;;;;;21.78;100.00;99473.38;2008842;87;22155;-90
2022/07/02 09:31:41;;;;;;;11.85;10.95;;;;;;;21.67;100.00;99476.34;2017858;87;21657;-88
2022/07/02 09:34:42;;;;;;;10.50;9.75;;;;;;;21.74;100.00;99481.00;2007856;86;21047;-89
2022/07/02 09:37:43;;;;;;;12.60;11.70;;;;;;;21.71;100.00;99482.00;1996183;87;21136;-90
2022/07/02 09:40:43;;;;;;;11.85;11.00;;;;;;;21.61;100.00;99484.45;2002683;87;21449;-88
2022/07/02 09:43:44;;;;;;;12.15;11.35;;;;;;;21.69;100.00;99488.09;1999754;87;21080;-91
2022/07/02 09:46:45;;;;;;;12.40;11.40;;;;;;;21.85;100.00;99482.03;2000060;86;21570;-90
2022/07/02 09:49:45;;;;;;;10.98;10.25;;;;;;;21.91;100.00;99489.63;1996569;87;21051;-89
2022/07/02 09:52:46;;;;;;;13.32;12.33;;;;;;;21.80;100.00;99492.08;2004830;87;21022;-87
2022/07/02 09:55:47;;;;;;;15.10;13.80;;;;;;;21.86;100.00;99490.34;2003841;86;21151;-88
2022/07/02 09:58:48;;;;;;;15.80;14.50;;;;;;;22.00;100.00;99492.22;2009354;86;21519;-88
2022/07/02 10:01:48;;;;;;;17.05;15.55;;;;;;;22.02;100.00;99492.27;1996213;87;21032;-87
2022/07/02 10:04:49;;;;;;;16.60;15.15;;;;;;;22.03;100.00;99495.73;1997573;87;21123;-89
2022/07/02 10:07:50;;;;;;;16.62;15.30;;;;;;;22.13;100.00;99498.14;1988338;87;20999;-87
2022/07/02 10:10:51;;;;;;;16.40;15.10;;;;;;;22.10;100.00;99496.45;2014303;87;21078;-87
2022/07/02 10:13:52;;;;;;;15.93;14.53;;;;;;;22.22;100.00;99507.92;2004603;87;21023;-87
2022/07/02 10:16:52;;;;;;;15.40;14.20;;;;;;;22.24;100.00;99502.34;2003934;87;21035;-87
2022/07/02 10:19:53;;;;;;;15.90;14.05;;;;;;;22.13;100.00;99509.34;2007689;87;21117;-88
2022/07/02 10:22:54;;;;;;;11.18;10.10;;;;;;;21.96;100.00;99501.74;2003752;86;21060;-87
2022/07/02 10:25:55;;;;;;;11.57;10.68;;;;;;;21.84;100.00;99513.73;1999714;87;21102;-88
2022/07/02 10:28:56;;;;;;;10.75;9.95;;;;;;;21.80;100.00;99514.73;2006533;86;21639;-87
2022/07/02 10:31:57;;;;;;;11.30;10.32;;;;;;;21.70;100.00;99510.52;2003014;87;21047;-87
2022/07/02 10:34:58;;;;;;;10.58;9.85;;;;;;;21.75;100.00;99510.61;2009616;87;21051;-87
2022/07/02 10:37:58;;;;;;;7.92;7.35;;;;;;;21.81;100.00;99513.69;2002776;87;22155;-87
2022/07/02 10:40:59;;;;;;;6.25;5.75;;;;;;;21.79;100.00;99520.30;1996819;87;21142;-89
2022/07/02 10:44:00;;;;;;;4.78;4.58;;;;;;;21.67;100.00;99524.80;2000252;87;21066;-88
2022/07/02 10:47:01;;;;;;;3.52;3.40;;;;;;;21.67;100.00;99522.14;2005414;87;21067;-89
2022/07/02 10:50:01;;;;;;;3.30;3.20;;;;;;;21.74;100.00;99515.66;2024053;86;21598;-90
2022/07/02 10:53:02;;;;;;;3.20;3.00;;;;;;;21.63;100.00;99529.80;2022703;86;21090;-90
2022/07/02 10:56:03;;;;;;;2.27;2.08;;;;;;;21.36;100.00;99525.44;2011580;86;21091;-90
2022/07/02 10:59:04;;;;;;;2.85;1.85;;;;;;;21.30;100.00;99529.00;2012835;86;21044;-91
2022/07/02 11:02:05;;;;;;;1.42;1.42;;;;;;;21.32;100.00;99538.93;2010167;87;21021;-89
2022/07/02 11:05:06;;;;;;;1.10;1.10;;;;;;;21.22;100.00;99535.47;2020546;87;21600;-87
2022/07/02 11:08:06;;;;;;;1.40;0.85;;;;;;;21.10;100.00;99537.27;2012485;87;21145;-89
2022/07/02 11:11:07;;;;;;;0.68;0.68;;;;;;;21.10;100.00;99534.61;2068215;84;21010;-88
2022/07/02 11:14:08;;;;;;;0.82;0.82;;;;;;;21.25;100.00;99535.00;2055529;85;21071;-92
2022/07/02 11:17:11;;;;;;;1.47;1.47;;;;;;;21.22;100.00;99527.48;2053062;85;21563;-90
2022/07/02 11:20:11;;;;;;;2.15;1.35;;;;;;;21.27;100.00;99530.80;2048853;85;21032;-88
2022/07/02 11:23:12;;;;;;;1.20;1.20;;;;;;;21.27;100.00;99523.63;2069005;84;21066;-90
2022/07/02 11:26:12;;;;;;;1.47;1.37;;;;;;;21.37;100.00;99535.05;2062239;85;21086;-88
